sensor_id;sensor_type;location;lat;lon;timestamp;pressure;altitude;pressure_sealevel;temperature;humidity
15646;BME280;7922;43.622;1.476;2023-07-31T00:02:10;100485.59;;;19.98;69.58
15646;BME280;7922;43.622;1.476;2023-07-31T00:04:35;100416.22;;;19.53;69.39
15646;BME280;7922;43.622;1.476;2023-07-31T00:07:01;100417.19;;;19.52;69.36
15646;BME280;7922;43.622;1.476;2023-07-31T00:09:26;100464.56;;;19.79;69.45
15646;BME280;7922;43.622;1.476;2023-07-31T00:11:51;100473.69;;;19.89;69.67
15646;BME280;7922;43.622;1.476;2023-07-31T00:14:16;100471.34;;;19.84;69.66
15646;BME280;7922;43.622;1.476;2023-07-31T00:16:42;100448.91;;;19.73;69.43
15646;BME280;7922;43.622;1.476;2023-07-31T00:19:07;100483.56;;;19.88;69.56
15646;BME280;7922;43.622;1.476;2023-07-31T00:21:32;100426.97;;;19.53;69.42
15646;BME280;7922;43.622;1.476;2023-07-31T00:23:57;100429.38;;;19.45;69.52
15646;BME280;7922;43.622;1.476;2023-07-31T00:26:23;100476.50;;;19.75;69.30
15646;BME280;7922;43.622;1.476;2023-07-31T00:28:48;100438.75;;;19.39;69.31
15646;BME280;7922;43.622;1.476;2023-07-31T00:31:13;100466.97;;;19.58;69.13
15646;BME280;7922;43.622;1.476;2023-07-31T00:33:38;100485.56;;;19.61;69.28
15646;BME280;7922;43.622;1.476;2023-07-31T00:36:04;100478.34;;;19.61;69.78
15646;BME280;7922;43.622;1.476;2023-07-31T00:38:29;100422.00;;;19.23;70.48
15646;BME280;7922;43.622;1.476;2023-07-31T00:40:54;100394.41;;;19.08;69.91
15646;BME280;7922;43.622;1.476;2023-07-31T00:43:20;100434.44;;;19.24;69.77
15646;BME280;7922;43.622;1.476;2023-07-31T00:45:45;100457.63;;;19.38;69.60
15646;BME280;7922;43.622;1.476;2023-07-31T00:48:10;100477.72;;;19.45;69.36
15646;BME280;7922;43.622;1.476;2023-07-31T00:50:36;100463.88;;;19.38;69.21
15646;BME280;7922;43.622;1.476;2023-07-31T00:53:01;100424.16;;;19.18;68.93
15646;BME280;7922;43.622;1.476;2023-07-31T00:55:27;100462.78;;;19.41;69.06
15646;BME280;7922;43.622;1.476;2023-07-31T00:57:52;100397.00;;;18.97;69.51
15646;BME280;7922;43.622;1.476;2023-07-31T01:00:19;100471.19;;;19.36;69.01
15646;BME280;7922;43.622;1.476;2023-07-31T01:02:44;100421.03;;;19.11;69.15
15646;BME280;7922;43.622;1.476;2023-07-31T01:05:09;100412.88;;;19.00;69.18
15646;BME280;7922;43.622;1.476;2023-07-31T01:10:16;100489.66;;;19.41;69.67
15646;BME280;7922;43.622;1.476;2023-07-31T01:12:45;100419.13;;;19.00;69.68
15646;BME280;7922;43.622;1.476;2023-07-31T01:15:10;100419.44;;;18.96;70.24
15646;BME280;7922;43.622;1.476;2023-07-31T01:17:36;100439.75;;;19.00;69.62
15646;BME280;7922;43.622;1.476;2023-07-31T01:20:05;100443.59;;;18.96;70.16
15646;BME280;7922;43.622;1.476;2023-07-31T01:27:58;100484.94;;;19.19;70.66
15646;BME280;7922;43.622;1.476;2023-07-31T01:30:28;100469.81;;;19.05;70.85
15646;BME280;7922;43.622;1.476;2023-07-31T01:32:57;100473.03;;;19.10;71.38
15646;BME280;7922;43.622;1.476;2023-07-31T01:35:22;100402.53;;;18.68;71.33
15646;BME280;7922;43.622;1.476;2023-07-31T01:37:48;100466.47;;;19.02;71.57
15646;BME280;7922;43.622;1.476;2023-07-31T01:40:13;100406.19;;;18.67;71.77
15646;BME280;7922;43.622;1.476;2023-07-31T01:42:38;100461.19;;;18.87;72.41
15646;BME280;7922;43.622;1.476;2023-07-31T01:45:04;100453.59;;;18.81;72.62
15646;BME280;7922;43.622;1.476;2023-07-31T01:47:29;100414.47;;;18.64;72.64
15646;BME280;7922;43.622;1.476;2023-07-31T01:49:55;100461.19;;;18.87;73.07
15646;BME280;7922;43.622;1.476;2023-07-31T01:52:20;100421.97;;;18.59;73.32
15646;BME280;7922;43.622;1.476;2023-07-31T01:54:45;100477.88;;;18.92;73.54
15646;BME280;7922;43.622;1.476;2023-07-31T01:57:11;100413.56;;;18.51;73.89
15646;BME280;7922;43.622;1.476;2023-07-31T01:59:36;100471.28;;;18.84;74.20
15646;BME280;7922;43.622;1.476;2023-07-31T02:02:01;100444.63;;;18.68;74.42
15646;BME280;7922;43.622;1.476;2023-07-31T02:04:26;100468.06;;;18.79;75.04
15646;BME280;7922;43.622;1.476;2023-07-31T02:06:52;100448.16;;;18.68;75.32
15646;BME280;7922;43.622;1.476;2023-07-31T02:09:18;100440.66;;;18.61;74.96
15646;BME280;7922;43.622;1.476;2023-07-31T02:11:43;100400.88;;;18.40;75.14
15646;BME280;7922;43.622;1.476;2023-07-31T02:14:08;100399.06;;;18.41;75.17
15646;BME280;7922;43.622;1.476;2023-07-31T02:16:34;100434.41;;;18.60;75.41
15646;BME280;7922;43.622;1.476;2023-07-31T02:18:59;100393.94;;;18.38;75.82
15646;BME280;7922;43.622;1.476;2023-07-31T02:21:24;100411.09;;;18.48;75.94
15646;BME280;7922;43.622;1.476;2023-07-31T02:23:49;100432.16;;;18.54;76.21
15646;BME280;7922;43.622;1.476;2023-07-31T02:26:15;100426.13;;;18.50;76.01
15646;BME280;7922;43.622;1.476;2023-07-31T02:28:40;100417.19;;;18.37;76.02
15646;BME280;7922;43.622;1.476;2023-07-31T02:31:06;100451.06;;;18.52;76.76
15646;BME280;7922;43.622;1.476;2023-07-31T02:33:31;100396.25;;;18.17;77.20
15646;BME280;7922;43.622;1.476;2023-07-31T02:35:56;100452.00;;;18.51;76.86
15646;BME280;7922;43.622;1.476;2023-07-31T02:38:21;100446.94;;;18.47;77.04
15646;BME280;7922;43.622;1.476;2023-07-31T02:40:47;100420.31;;;18.31;76.76
15646;BME280;7922;43.622;1.476;2023-07-31T02:43:12;100398.34;;;18.12;77.16
15646;BME280;7922;43.622;1.476;2023-07-31T02:45:37;100428.69;;;18.26;77.37
15646;BME280;7922;43.622;1.476;2023-07-31T02:48:03;100436.09;;;18.36;77.66
15646;BME280;7922;43.622;1.476;2023-07-31T02:50:28;100378.59;;;18.00;77.53
15646;BME280;7922;43.622;1.476;2023-07-31T02:52:53;100400.19;;;18.11;77.43
15646;BME280;7922;43.622;1.476;2023-07-31T02:55:18;100395.44;;;18.02;77.73
15646;BME280;7922;43.622;1.476;2023-07-31T02:57:44;100416.84;;;18.16;78.18
15646;BME280;7922;43.622;1.476;2023-07-31T03:00:09;100390.84;;;18.04;77.44
15646;BME280;7922;43.622;1.476;2023-07-31T03:02:34;100391.81;;;18.03;77.37
15646;BME280;7922;43.622;1.476;2023-07-31T03:05:00;100370.41;;;17.89;77.53
15646;BME280;7922;43.622;1.476;2023-07-31T03:07:25;100413.72;;;18.10;77.79
15646;BME280;7922;43.622;1.476;2023-07-31T03:09:50;100416.00;;;18.16;77.55
15646;BME280;7922;43.622;1.476;2023-07-31T03:12:16;100377.59;;;17.88;77.63
15646;BME280;7922;43.622;1.476;2023-07-31T03:14:41;100369.69;;;17.87;78.18
15646;BME280;7922;43.622;1.476;2023-07-31T03:17:07;100368.13;;;17.83;77.66
15646;BME280;7922;43.622;1.476;2023-07-31T03:19:33;100380.41;;;17.87;78.32
15646;BME280;7922;43.622;1.476;2023-07-31T03:21:59;100370.63;;;17.71;77.85
15646;BME280;7922;43.622;1.476;2023-07-31T03:24:24;100363.44;;;17.72;78.22
15646;BME280;7922;43.622;1.476;2023-07-31T03:26:49;100377.25;;;17.80;78.08
15646;BME280;7922;43.622;1.476;2023-07-31T03:29:15;100376.41;;;17.79;77.88
15646;BME280;7922;43.622;1.476;2023-07-31T03:31:40;100376.00;;;17.71;78.14
15646;BME280;7922;43.622;1.476;2023-07-31T03:34:05;100394.28;;;17.79;78.37
15646;BME280;7922;43.622;1.476;2023-07-31T03:36:30;100407.94;;;17.89;78.06
15646;BME280;7922;43.622;1.476;2023-07-31T03:38:56;100363.41;;;17.59;77.90
15646;BME280;7922;43.622;1.476;2023-07-31T03:41:21;100416.94;;;17.88;78.34
15646;BME280;7922;43.622;1.476;2023-07-31T03:43:50;100377.47;;;17.63;78.68
15646;BME280;7922;43.622;1.476;2023-07-31T03:46:15;100417.34;;;17.82;78.64
15646;BME280;7922;43.622;1.476;2023-07-31T03:48:40;100440.03;;;17.90;79.03
15646;BME280;7922;43.622;1.476;2023-07-31T03:51:06;100430.00;;;17.79;79.28
15646;BME280;7922;43.622;1.476;2023-07-31T03:53:31;100419.47;;;17.62;79.47
15646;BME280;7922;43.622;1.476;2023-07-31T03:55:56;100432.69;;;17.65;79.45
15646;BME280;7922;43.622;1.476;2023-07-31T03:58:21;100391.59;;;17.38;80.10
15646;BME280;7922;43.622;1.476;2023-07-31T04:00:47;100398.66;;;17.39;79.88
15646;BME280;7922;43.622;1.476;2023-07-31T04:03:12;100450.47;;;17.66;80.50
15646;BME280;7922;43.622;1.476;2023-07-31T04:05:38;100402.59;;;17.33;80.39
15646;BME280;7922;43.622;1.476;2023-07-31T04:08:04;100408.81;;;17.33;80.41
15646;BME280;7922;43.622;1.476;2023-07-31T04:10:29;100447.31;;;17.60;80.67
15646;BME280;7922;43.622;1.476;2023-07-31T04:12:54;100438.81;;;17.53;80.35
15646;BME280;7922;43.622;1.476;2023-07-31T04:15:19;100429.25;;;17.49;80.83
15646;BME280;7922;43.622;1.476;2023-07-31T04:17:45;100364.09;;;17.07;80.46
15646;BME280;7922;43.622;1.476;2023-07-31T04:20:10;100395.34;;;17.21;81.26
15646;BME280;7922;43.622;1.476;2023-07-31T04:22:35;100460.53;;;17.48;81.09
15646;BME280;7922;43.622;1.476;2023-07-31T04:25:01;100454.22;;;17.49;81.30
15646;BME280;7922;43.622;1.476;2023-07-31T04:27:26;100454.72;;;17.42;81.45
15646;BME280;7922;43.622;1.476;2023-07-31T04:29:51;100464.47;;;17.43;81.57
15646;BME280;7922;43.622;1.476;2023-07-31T04:32:16;100437.91;;;17.25;81.40
15646;BME280;7922;43.622;1.476;2023-07-31T04:34:42;100458.84;;;17.33;82.01
15646;BME280;7922;43.622;1.476;2023-07-31T04:37:08;100428.06;;;17.12;82.19
15646;BME280;7922;43.622;1.476;2023-07-31T04:39:33;100401.09;;;16.86;82.57
15646;BME280;7922;43.622;1.476;2023-07-31T04:41:58;100441.31;;;16.99;83.17
15646;BME280;7922;43.622;1.476;2023-07-31T04:44:24;100371.59;;;16.57;82.85
15646;BME280;7922;43.622;1.476;2023-07-31T04:46:49;100416.78;;;16.78;83.68
15646;BME280;7922;43.622;1.476;2023-07-31T04:49:14;100413.13;;;16.79;83.49
15646;BME280;7922;43.622;1.476;2023-07-31T04:51:39;100477.41;;;17.22;83.16
15646;BME280;7922;43.622;1.476;2023-07-31T04:54:05;100414.66;;;16.83;83.12
15646;BME280;7922;43.622;1.476;2023-07-31T04:56:30;100424.50;;;16.82;83.03
15646;BME280;7922;43.622;1.476;2023-07-31T04:58:55;100479.41;;;17.18;82.66
15646;BME280;7922;43.622;1.476;2023-07-31T05:01:20;100420.00;;;16.83;82.40
15646;BME280;7922;43.622;1.476;2023-07-31T05:03:46;100414.75;;;16.81;81.59
15646;BME280;7922;43.622;1.476;2023-07-31T05:06:11;100486.97;;;17.26;81.50
15646;BME280;7922;43.622;1.476;2023-07-31T05:08:36;100409.41;;;16.81;81.47
15646;BME280;7922;43.622;1.476;2023-07-31T05:11:02;100483.03;;;17.31;81.14
15646;BME280;7922;43.622;1.476;2023-07-31T05:13:28;100407.00;;;16.91;80.80
15646;BME280;7922;43.622;1.476;2023-07-31T05:15:53;100468.88;;;17.15;80.92
15646;BME280;7922;43.622;1.476;2023-07-31T05:18:18;100454.72;;;16.99;80.63
15646;BME280;7922;43.622;1.476;2023-07-31T05:20:43;100481.69;;;17.24;80.23
15646;BME280;7922;43.622;1.476;2023-07-31T05:23:09;100472.03;;;17.22;79.49
15646;BME280;7922;43.622;1.476;2023-07-31T05:25:34;100487.34;;;17.34;79.41
15646;BME280;7922;43.622;1.476;2023-07-31T05:27:59;100489.16;;;17.48;78.85
15646;BME280;7922;43.622;1.476;2023-07-31T05:30:25;100451.84;;;17.45;78.00
15646;BME280;7922;43.622;1.476;2023-07-31T05:32:50;100413.69;;;17.27;77.69
15646;BME280;7922;43.622;1.476;2023-07-31T05:35:15;100398.00;;;17.21;77.07
15646;BME280;7922;43.622;1.476;2023-07-31T05:37:40;100488.53;;;17.71;76.63
15646;BME280;7922;43.622;1.476;2023-07-31T05:40:06;100463.88;;;17.66;76.81
15646;BME280;7922;43.622;1.476;2023-07-31T05:42:32;100468.84;;;17.72;76.24
15646;BME280;7922;43.622;1.476;2023-07-31T05:44:57;100424.19;;;17.59;75.52
15646;BME280;7922;43.622;1.476;2023-07-31T05:47:22;100460.88;;;17.85;75.34
15646;BME280;7922;43.622;1.476;2023-07-31T05:49:48;100480.81;;;18.08;75.05
15646;BME280;7922;43.622;1.476;2023-07-31T05:52:13;100465.19;;;17.88;74.69
15646;BME280;7922;43.622;1.476;2023-07-31T05:54:39;100484.13;;;17.99;74.68
15646;BME280;7922;43.622;1.476;2023-07-31T05:57:04;100463.69;;;17.69;75.60
15646;BME280;7922;43.622;1.476;2023-07-31T05:59:29;100439.94;;;17.63;74.96
15646;BME280;7922;43.622;1.476;2023-07-31T06:01:55;100491.97;;;18.02;75.10
15646;BME280;7922;43.622;1.476;2023-07-31T06:04:20;100442.97;;;17.71;74.11
15646;BME280;7922;43.622;1.476;2023-07-31T06:06:45;100429.84;;;17.54;74.12
15646;BME280;7922;43.622;1.476;2023-07-31T06:09:10;100431.53;;;17.84;73.92
15646;BME280;7922;43.622;1.476;2023-07-31T06:11:36;100476.97;;;18.39;73.15
15646;BME280;7922;43.622;1.476;2023-07-31T06:14:01;100450.81;;;18.43;72.17
15646;BME280;7922;43.622;1.476;2023-07-31T06:16:26;100489.53;;;18.12;72.99
15646;BME280;7922;43.622;1.476;2023-07-31T06:18:51;100421.00;;;17.80;73.53
15646;BME280;7922;43.622;1.476;2023-07-31T06:21:17;100481.53;;;18.24;72.71
15646;BME280;7922;43.622;1.476;2023-07-31T06:23:42;100488.56;;;18.40;71.95
15646;BME280;7922;43.622;1.476;2023-07-31T06:26:07;100479.50;;;18.28;71.62
15646;BME280;7922;43.622;1.476;2023-07-31T06:28:33;100435.63;;;18.16;71.66
15646;BME280;7922;43.622;1.476;2023-07-31T06:30:58;100482.16;;;18.55;70.80
15646;BME280;7922;43.622;1.476;2023-07-31T06:33:24;100489.34;;;18.82;70.45
15646;BME280;7922;43.622;1.476;2023-07-31T06:35:49;100455.06;;;18.72;70.23
15646;BME280;7922;43.622;1.476;2023-07-31T06:38:14;100420.78;;;18.50;69.35
15646;BME280;7922;43.622;1.476;2023-07-31T06:40:40;100476.88;;;18.81;69.69
15646;BME280;7922;43.622;1.476;2023-07-31T06:43:05;100489.91;;;18.99;68.96
15646;BME280;7922;43.622;1.476;2023-07-31T06:45:31;100483.44;;;19.15;68.33
15646;BME280;7922;43.622;1.476;2023-07-31T06:47:56;100488.81;;;19.40;68.01
15646;BME280;7922;43.622;1.476;2023-07-31T06:50:21;100479.56;;;19.32;68.29
15646;BME280;7922;43.622;1.476;2023-07-31T06:52:46;100488.81;;;19.40;67.17
15646;BME280;7922;43.622;1.476;2023-07-31T06:55:19;100484.94;;;19.44;66.87
15646;BME280;7922;43.622;1.476;2023-07-31T06:57:46;100495.78;;;19.68;66.40
15646;BME280;7922;43.622;1.476;2023-07-31T07:00:11;100432.63;;;19.24;66.42
15646;BME280;7922;43.622;1.476;2023-07-31T07:02:37;100492.09;;;19.82;65.60
15646;BME280;7922;43.622;1.476;2023-07-31T07:05:02;100478.38;;;19.48;66.58
15646;BME280;7922;43.622;1.476;2023-07-31T07:07:27;100420.38;;;19.20;65.84
15646;BME280;7922;43.622;1.476;2023-07-31T07:09:53;100456.63;;;19.64;65.15
15646;BME280;7922;43.622;1.476;2023-07-31T07:12:18;100478.34;;;19.74;64.64
15646;BME280;7922;43.622;1.476;2023-07-31T07:14:43;100407.94;;;19.56;64.92
15646;BME280;7922;43.622;1.476;2023-07-31T07:17:09;100472.53;;;19.80;64.07
15646;BME280;7922;43.622;1.476;2023-07-31T07:19:34;100406.81;;;19.35;63.85
15646;BME280;7922;43.622;1.476;2023-07-31T07:21:59;100470.19;;;19.76;64.17
15646;BME280;7922;43.622;1.476;2023-07-31T07:24:24;100480.63;;;19.67;64.42
15646;BME280;7922;43.622;1.476;2023-07-31T07:26:50;100501.75;;;19.98;64.60
15646;BME280;7922;43.622;1.476;2023-07-31T07:29:15;100482.13;;;20.08;63.54
15646;BME280;7922;43.622;1.476;2023-07-31T07:31:40;100460.34;;;20.11;63.26
15646;BME280;7922;43.622;1.476;2023-07-31T07:34:05;100432.41;;;20.25;61.91
15646;BME280;7922;43.622;1.476;2023-07-31T07:36:31;100489.16;;;20.46;62.59
15646;BME280;7922;43.622;1.476;2023-07-31T07:38:56;100470.97;;;20.50;62.75
15646;BME280;7922;43.622;1.476;2023-07-31T07:41:21;100440.84;;;20.20;62.14
15646;BME280;7922;43.622;1.476;2023-07-31T07:43:46;100467.13;;;20.76;61.21
15646;BME280;7922;43.622;1.476;2023-07-31T07:46:12;100477.75;;;20.42;61.35
15646;BME280;7922;43.622;1.476;2023-07-31T07:48:37;100459.38;;;20.60;60.73
15646;BME280;7922;43.622;1.476;2023-07-31T07:51:02;100429.53;;;20.63;60.67
15646;BME280;7922;43.622;1.476;2023-07-31T07:53:28;100476.34;;;20.85;60.33
15646;BME280;7922;43.622;1.476;2023-07-31T07:55:53;100483.44;;;20.86;59.63
15646;BME280;7922;43.622;1.476;2023-07-31T07:58:18;100382.56;;;20.43;59.68
15646;BME280;7922;43.622;1.476;2023-07-31T08:00:49;100457.34;;;20.86;59.67
15646;BME280;7922;43.622;1.476;2023-07-31T08:03:15;100467.69;;;21.04;60.08
15646;BME280;7922;43.622;1.476;2023-07-31T08:05:40;100471.06;;;20.83;59.87
15646;BME280;7922;43.622;1.476;2023-07-31T08:08:05;100416.78;;;20.65;59.56
15646;BME280;7922;43.622;1.476;2023-07-31T08:10:31;100410.81;;;20.73;60.21
15646;BME280;7922;43.622;1.476;2023-07-31T08:12:56;100424.56;;;20.81;59.43
15646;BME280;7922;43.622;1.476;2023-07-31T08:15:21;100447.50;;;21.21;58.61
15646;BME280;7922;43.622;1.476;2023-07-31T08:17:46;100448.69;;;21.28;58.67
15646;BME280;7922;43.622;1.476;2023-07-31T08:20:12;100445.28;;;21.26;58.63
15646;BME280;7922;43.622;1.476;2023-07-31T08:22:37;100426.28;;;21.05;58.18
15646;BME280;7922;43.622;1.476;2023-07-31T08:25:02;100392.13;;;21.16;58.18
15646;BME280;7922;43.622;1.476;2023-07-31T08:27:28;100439.91;;;21.48;57.90
15646;BME280;7922;43.622;1.476;2023-07-31T08:29:53;100409.88;;;21.30;57.41
15646;BME280;7922;43.622;1.476;2023-07-31T08:32:18;100463.56;;;21.56;57.06
15646;BME280;7922;43.622;1.476;2023-07-31T08:34:44;100392.09;;;21.28;57.26
15646;BME280;7922;43.622;1.476;2023-07-31T08:37:09;100409.41;;;21.36;57.36
15646;BME280;7922;43.622;1.476;2023-07-31T08:39:34;100440.59;;;21.84;56.67
15646;BME280;7922;43.622;1.476;2023-07-31T08:42:00;100445.28;;;22.25;56.24
15646;BME280;7922;43.622;1.476;2023-07-31T08:44:25;100437.25;;;22.35;55.95
15646;BME280;7922;43.622;1.476;2023-07-31T08:46:51;100378.72;;;22.35;55.02
15646;BME280;7922;43.622;1.476;2023-07-31T08:49:17;100380.50;;;22.46;53.67
15646;BME280;7922;43.622;1.476;2023-07-31T08:51:46;100380.13;;;21.98;54.47
15646;BME280;7922;43.622;1.476;2023-07-31T08:54:12;100411.59;;;22.41;54.30
15646;BME280;7922;43.622;1.476;2023-07-31T08:56:39;100410.47;;;22.64;53.75
15646;BME280;7922;43.622;1.476;2023-07-31T08:59:05;100403.09;;;22.45;54.42
15646;BME280;7922;43.622;1.476;2023-07-31T09:01:32;100414.75;;;22.88;54.13
15646;BME280;7922;43.622;1.476;2023-07-31T09:04:01;100414.88;;;22.65;52.70
15646;BME280;7922;43.622;1.476;2023-07-31T09:06:28;100410.28;;;22.77;53.49
15646;BME280;7922;43.622;1.476;2023-07-31T09:08:55;100391.06;;;22.49;52.96
15646;BME280;7922;43.622;1.476;2023-07-31T09:11:21;100363.25;;;22.58;53.29
15646;BME280;7922;43.622;1.476;2023-07-31T09:13:46;100407.97;;;22.72;52.98
15646;BME280;7922;43.622;1.476;2023-07-31T09:16:13;100397.31;;;22.50;53.64
15646;BME280;7922;43.622;1.476;2023-07-31T09:18:54;100407.09;;;23.14;52.58
15646;BME280;7922;43.622;1.476;2023-07-31T09:21:20;100408.44;;;23.29;52.11
15646;BME280;7922;43.622;1.476;2023-07-31T09:23:47;100391.84;;;23.13;53.01
15646;BME280;7922;43.622;1.476;2023-07-31T09:26:35;100378.22;;;22.63;53.66
15646;BME280;7922;43.622;1.476;2023-07-31T09:29:04;100398.56;;;22.88;53.96
15646;BME280;7922;43.622;1.476;2023-07-31T09:31:38;100418.69;;;23.04;53.38
15646;BME280;7922;43.622;1.476;2023-07-31T09:34:04;100347.53;;;22.94;53.68
15646;BME280;7922;43.622;1.476;2023-07-31T09:36:30;100335.31;;;22.69;53.48
15646;BME280;7922;43.622;1.476;2023-07-31T09:38:55;100377.47;;;23.02;53.77
15646;BME280;7922;43.622;1.476;2023-07-31T09:41:20;100378.06;;;23.16;53.36
15646;BME280;7922;43.622;1.476;2023-07-31T09:43:53;100367.31;;;23.25;53.16
15646;BME280;7922;43.622;1.476;2023-07-31T09:46:20;100330.97;;;23.09;53.14
15646;BME280;7922;43.622;1.476;2023-07-31T09:48:45;100377.72;;;22.99;54.13
15646;BME280;7922;43.622;1.476;2023-07-31T09:51:11;100369.38;;;22.81;54.33
15646;BME280;7922;43.622;1.476;2023-07-31T09:53:36;100379.97;;;23.35;53.92
15646;BME280;7922;43.622;1.476;2023-07-31T09:56:03;100325.94;;;23.44;52.29
15646;BME280;7922;43.622;1.476;2023-07-31T09:58:32;100361.63;;;23.78;51.81
15646;BME280;7922;43.622;1.476;2023-07-31T10:01:00;100376.13;;;23.77;52.04
15646;BME280;7922;43.622;1.476;2023-07-31T10:03:27;100365.19;;;23.79;52.43
15646;BME280;7922;43.622;1.476;2023-07-31T10:05:55;100378.31;;;23.93;52.31
15646;BME280;7922;43.622;1.476;2023-07-31T10:08:24;100363.75;;;23.94;51.29
15646;BME280;7922;43.622;1.476;2023-07-31T10:10:52;100363.91;;;23.83;51.44
15646;BME280;7922;43.622;1.476;2023-07-31T10:13:18;100387.59;;;23.60;52.02
15646;BME280;7922;43.622;1.476;2023-07-31T10:15:45;100375.91;;;23.60;52.02
15646;BME280;7922;43.622;1.476;2023-07-31T10:18:11;100364.94;;;23.51;51.36
15646;BME280;7922;43.622;1.476;2023-07-31T10:20:37;100353.72;;;23.56;51.46
15646;BME280;7922;43.622;1.476;2023-07-31T10:23:02;100284.13;;;23.58;50.60
15646;BME280;7922;43.622;1.476;2023-07-31T10:25:28;100367.16;;;24.35;50.25
15646;BME280;7922;43.622;1.476;2023-07-31T10:27:54;100348.94;;;23.69;51.21
15646;BME280;7922;43.622;1.476;2023-07-31T10:30:29;100361.63;;;23.98;50.46
15646;BME280;7922;43.622;1.476;2023-07-31T10:32:56;100351.22;;;24.03;50.80
15646;BME280;7922;43.622;1.476;2023-07-31T10:35:22;100350.06;;;24.35;49.52
15646;BME280;7922;43.622;1.476;2023-07-31T10:37:48;100349.38;;;24.13;50.20
15646;BME280;7922;43.622;1.476;2023-07-31T10:40:24;100351.78;;;24.07;50.00
15646;BME280;7922;43.622;1.476;2023-07-31T10:42:56;100328.44;;;24.15;49.91
15646;BME280;7922;43.622;1.476;2023-07-31T10:47:58;100333.13;;;24.42;49.79
15646;BME280;7922;43.622;1.476;2023-07-31T10:50:23;100337.81;;;24.31;48.99
15646;BME280;7922;43.622;1.476;2023-07-31T10:52:51;100334.78;;;24.63;48.79
15646;BME280;7922;43.622;1.476;2023-07-31T10:55:40;100350.16;;;25.09;48.53
15646;BME280;7922;43.622;1.476;2023-07-31T10:58:09;100354.28;;;25.41;47.46
15646;BME280;7922;43.622;1.476;2023-07-31T11:00:37;100337.28;;;24.84;47.22
15646;BME280;7922;43.622;1.476;2023-07-31T11:05:50;100347.47;;;25.37;48.23
15646;BME280;7922;43.622;1.476;2023-07-31T11:08:32;100284.25;;;25.36;47.31
15646;BME280;7922;43.622;1.476;2023-07-31T11:11:08;100344.63;;;25.56;46.65
15646;BME280;7922;43.622;1.476;2023-07-31T11:13:40;100179.47;;;24.35;47.53
15646;BME280;7922;43.622;1.476;2023-07-31T11:16:05;100317.56;;;25.29;47.43
15646;BME280;7922;43.622;1.476;2023-07-31T11:18:31;100315.13;;;25.26;47.23
15646;BME280;7922;43.622;1.476;2023-07-31T11:20:56;100282.97;;;24.76;46.78
15646;BME280;7922;43.622;1.476;2023-07-31T11:23:22;100315.91;;;25.08;47.41
15646;BME280;7922;43.622;1.476;2023-07-31T11:25:49;100320.56;;;24.88;47.84
15646;BME280;7922;43.622;1.476;2023-07-31T11:28:16;100326.97;;;24.87;47.74
15646;BME280;7922;43.622;1.476;2023-07-31T11:30:42;100325.97;;;25.26;46.69
15646;BME280;7922;43.622;1.476;2023-07-31T11:33:09;100229.50;;;24.78;46.72
15646;BME280;7922;43.622;1.476;2023-07-31T11:35:41;100280.97;;;25.05;47.23
15646;BME280;7922;43.622;1.476;2023-07-31T11:38:07;100318.00;;;25.24;47.57
15646;BME280;7922;43.622;1.476;2023-07-31T11:40:41;100256.41;;;24.79;47.57
15646;BME280;7922;43.622;1.476;2023-07-31T11:43:06;100286.97;;;25.54;47.38
15646;BME280;7922;43.622;1.476;2023-07-31T11:45:32;100285.03;;;25.64;46.48
15646;BME280;7922;43.622;1.476;2023-07-31T11:47:58;100235.47;;;25.27;46.21
15646;BME280;7922;43.622;1.476;2023-07-31T11:50:24;100279.97;;;25.34;46.37
15646;BME280;7922;43.622;1.476;2023-07-31T11:52:52;100273.00;;;25.31;46.41
15646;BME280;7922;43.622;1.476;2023-07-31T11:55:18;100283.88;;;25.85;45.94
15646;BME280;7922;43.622;1.476;2023-07-31T11:57:45;100216.66;;;25.61;45.01
15646;BME280;7922;43.622;1.476;2023-07-31T12:00:12;100280.53;;;25.73;45.27
15646;BME280;7922;43.622;1.476;2023-07-31T12:02:38;100275.28;;;25.72;45.15
15646;BME280;7922;43.622;1.476;2023-07-31T12:05:03;100248.50;;;25.77;44.72
15646;BME280;7922;43.622;1.476;2023-07-31T12:07:43;100194.19;;;25.51;44.67
15646;BME280;7922;43.622;1.476;2023-07-31T12:10:08;100263.66;;;25.79;43.87
15646;BME280;7922;43.622;1.476;2023-07-31T12:12:34;100273.09;;;25.57;44.52
15646;BME280;7922;43.622;1.476;2023-07-31T12:14:59;100250.44;;;25.49;44.63
15646;BME280;7922;43.622;1.476;2023-07-31T12:17:24;100234.81;;;25.42;44.77
15646;BME280;7922;43.622;1.476;2023-07-31T12:19:50;100234.94;;;25.77;43.89
15646;BME280;7922;43.622;1.476;2023-07-31T12:22:16;100220.47;;;25.68;43.58
15646;BME280;7922;43.622;1.476;2023-07-31T12:24:42;100251.28;;;26.03;43.54
15646;BME280;7922;43.622;1.476;2023-07-31T12:27:15;100212.16;;;25.87;42.34
15646;BME280;7922;43.622;1.476;2023-07-31T12:29:43;100244.09;;;26.46;42.89
15646;BME280;7922;43.622;1.476;2023-07-31T12:32:21;100247.84;;;26.19;43.59
15646;BME280;7922;43.622;1.476;2023-07-31T12:34:46;100224.19;;;25.49;44.02
15646;BME280;7922;43.622;1.476;2023-07-31T12:37:12;100237.97;;;25.74;44.49
15646;BME280;7922;43.622;1.476;2023-07-31T12:39:37;100227.81;;;25.93;44.30
15646;BME280;7922;43.622;1.476;2023-07-31T12:42:02;100241.03;;;26.14;44.35
15646;BME280;7922;43.622;1.476;2023-07-31T12:44:28;100172.38;;;25.78;44.12
15646;BME280;7922;43.622;1.476;2023-07-31T12:46:53;100219.88;;;26.26;43.98
15646;BME280;7922;43.622;1.476;2023-07-31T12:49:18;100214.19;;;26.37;42.47
15646;BME280;7922;43.622;1.476;2023-07-31T12:51:44;100192.38;;;26.47;42.20
15646;BME280;7922;43.622;1.476;2023-07-31T12:54:09;100209.97;;;26.77;42.18
15646;BME280;7922;43.622;1.476;2023-07-31T12:56:34;100200.81;;;26.78;42.36
15646;BME280;7922;43.622;1.476;2023-07-31T12:58:59;100153.34;;;26.56;41.64
15646;BME280;7922;43.622;1.476;2023-07-31T13:01:25;100204.75;;;26.84;43.00
15646;BME280;7922;43.622;1.476;2023-07-31T13:03:50;100197.22;;;26.78;40.88
15646;BME280;7922;43.622;1.476;2023-07-31T13:06:15;100148.66;;;26.40;41.59
15646;BME280;7922;43.622;1.476;2023-07-31T13:08:40;100157.78;;;26.31;40.47